createdAt,value
2019-02-19T00:01:20.797Z,28.35
2019-02-19T00:03:52.390Z,28.30
2019-02-19T00:06:23.953Z,31.82
2019-02-19T00:08:55.874Z,24.87
2019-02-19T00:11:27.137Z,26.07
2019-02-19T00:13:58.214Z,25.10
2019-02-19T00:16:29.737Z,32.35
2019-02-19T00:19:00.404Z,27.80
2019-02-19T00:21:32.288Z,25.85
2019-02-19T00:24:03.579Z,32.73
2019-02-19T00:26:34.957Z,31.87
2019-02-19T00:29:05.616Z,33.45
2019-02-19T00:31:36.599Z,32.55
2019-02-19T00:34:08.190Z,34.00
2019-02-19T00:36:39.791Z,27.87
2019-02-19T00:39:11.199Z,34.35
2019-02-19T00:41:42.734Z,29.77
2019-02-19T00:44:13.744Z,32.63
2019-02-19T00:46:45.696Z,30.00
2019-02-19T00:49:17.265Z,29.90
2019-02-19T00:51:48.551Z,42.27
2019-02-19T00:54:20.133Z,33.92
2019-02-19T00:56:51.073Z,28.32
2019-02-19T00:59:22.348Z,32.60
2019-02-19T01:01:53.673Z,31.45
2019-02-19T01:04:25.113Z,27.80
2019-02-19T01:06:56.692Z,30.50
2019-02-19T01:09:28.595Z,30.08
2019-02-19T01:12:00.193Z,31.75
2019-02-19T01:14:31.747Z,39.83
2019-02-19T01:17:03.016Z,29.63
2019-02-19T01:19:34.428Z,33.15
2019-02-19T01:22:05.676Z,37.33
2019-02-19T01:24:37.195Z,33.67
2019-02-19T01:27:08.155Z,36.90
2019-02-19T01:29:39.704Z,32.08
2019-02-19T01:32:11.039Z,31.40
2019-02-19T01:34:42.618Z,35.80
2019-02-19T01:37:14.174Z,34.40
2019-02-19T01:39:45.686Z,36.50
2019-02-19T01:42:17.091Z,40.73
2019-02-19T01:44:48.642Z,31.15
2019-02-19T01:47:20.172Z,32.15
2019-02-19T01:49:51.544Z,34.05
2019-02-19T01:52:22.194Z,33.20
2019-02-19T01:54:53.409Z,27.55
2019-02-19T01:57:24.670Z,29.55
2019-02-19T01:59:56.205Z,29.70
2019-02-19T02:02:27.747Z,30.82
2019-02-19T02:04:58.997Z,28.62
2019-02-19T02:07:30.972Z,27.20
2019-02-19T02:10:02.309Z,28.10
2019-02-19T02:12:33.769Z,29.45
2019-02-19T02:15:05.097Z,28.15
2019-02-19T02:17:36.303Z,29.15
2019-02-19T02:20:07.154Z,29.67
2019-02-19T02:22:38.446Z,27.80
2019-02-19T02:25:09.690Z,24.52
2019-02-19T02:27:41.258Z,21.00
2019-02-19T02:30:12.209Z,18.92
2019-02-19T02:32:43.481Z,17.35
2019-02-19T02:35:15.333Z,17.17
2019-02-19T02:37:46.887Z,13.18
2019-02-19T02:40:18.806Z,17.50
2019-02-19T02:42:50.348Z,15.43
2019-02-19T02:45:22.003Z,16.65
2019-02-19T02:47:53.223Z,14.00
2019-02-19T02:50:24.307Z,14.90
2019-02-19T02:52:56.068Z,17.30
2019-02-19T02:55:27.602Z,13.48
2019-02-19T02:57:59.474Z,16.20
2019-02-19T03:00:30.714Z,18.85
2019-02-19T03:03:01.957Z,21.15
2019-02-19T03:05:32.992Z,22.25
2019-02-19T03:08:05.855Z,15.70
2019-02-19T03:10:37.475Z,19.37
2019-02-19T03:13:08.808Z,13.98
2019-02-19T03:15:40.363Z,15.25
2019-02-19T03:18:13.538Z,16.75
2019-02-19T03:20:45.267Z,14.33
2019-02-19T03:23:16.879Z,17.12
2019-02-19T03:25:48.133Z,22.32
2019-02-19T03:28:19.133Z,21.52
2019-02-19T03:30:50.122Z,24.27
2019-02-19T03:33:21.636Z,22.93
2019-02-19T03:35:53.174Z,22.73
2019-02-19T03:38:24.423Z,23.98
2019-02-19T03:40:55.968Z,28.10
2019-02-19T03:43:27.529Z,24.05
2019-02-19T03:45:58.792Z,21.02
2019-02-19T03:48:30.331Z,26.52
2019-02-19T03:51:01.703Z,23.55
2019-02-19T03:53:33.034Z,24.12
2019-02-19T03:56:04.377Z,25.27
2019-02-19T03:58:36.039Z,21.30
2019-02-19T04:01:07.407Z,24.32
2019-02-19T04:03:39.264Z,26.33
2019-02-19T04:06:10.496Z,24.60
2019-02-19T04:08:41.815Z,23.87
2019-02-19T04:11:13.400Z,24.72
2019-02-19T04:13:44.708Z,25.80
2019-02-19T04:16:21.267Z,25.37
2019-02-19T04:18:49.815Z,25.10
2019-02-19T04:21:20.790Z,24.15
2019-02-19T04:23:52.021Z,20.88
2019-02-19T04:26:23.622Z,27.50
2019-02-19T04:28:54.844Z,23.62
2019-02-19T04:31:26.368Z,27.50
2019-02-19T04:33:57.744Z,23.32
2019-02-19T04:36:29.304Z,23.38
2019-02-19T04:39:01.172Z,30.08
2019-02-19T04:41:32.420Z,21.33
2019-02-19T04:44:04.270Z,26.97
2019-02-19T04:46:35.857Z,32.28
2019-02-19T04:49:07.535Z,25.70
2019-02-19T04:51:39.468Z,26.52
2019-02-19T04:54:11.342Z,25.32
2019-02-19T04:56:42.877Z,23.60
2019-02-19T04:59:14.444Z,26.82
2019-02-19T05:01:45.671Z,23.83
2019-02-19T05:04:17.192Z,27.25
2019-02-19T05:06:49.058Z,28.67
2019-02-19T05:09:20.419Z,31.45
2019-02-19T05:11:51.455Z,23.87
2019-02-19T05:14:23.259Z,27.77
2019-02-19T05:16:57.642Z,25.77
2019-02-19T05:19:29.191Z,27.67
2019-02-19T05:22:00.762Z,28.38
2019-02-19T05:24:32.306Z,26.80
2019-02-19T05:27:03.863Z,25.30
2019-02-19T05:29:35.418Z,23.87
2019-02-19T05:32:06.654Z,27.17
2019-02-19T05:34:38.187Z,25.75
2019-02-19T05:37:09.797Z,25.30
2019-02-19T05:39:41.339Z,29.25
2019-02-19T05:42:12.605Z,24.72
2019-02-19T05:44:44.488Z,23.15
2019-02-19T05:47:16.352Z,24.95
2019-02-19T05:49:48.337Z,23.90
2019-02-19T05:52:20.281Z,24.27
2019-02-19T05:54:51.527Z,24.30
2019-02-19T05:57:22.797Z,24.43
2019-02-19T05:59:53.753Z,29.02
2019-02-19T06:02:25.421Z,27.93
2019-02-19T06:04:56.104Z,22.52
2019-02-19T06:07:27.950Z,29.42
2019-02-19T06:09:59.100Z,26.55
2019-02-19T06:12:31.130Z,27.52
2019-02-19T06:15:02.569Z,50.50
2019-02-19T06:17:34.769Z,24.63
2019-02-19T06:20:07.083Z,24.90
2019-02-19T06:22:38.394Z,27.52
2019-02-19T06:25:10.333Z,35.48
2019-02-19T06:27:41.547Z,25.97
2019-02-19T06:30:14.419Z,24.02
2019-02-19T06:32:45.639Z,22.75
2019-02-19T06:35:16.896Z,21.52
2019-02-19T06:37:48.226Z,25.23
2019-02-19T06:40:31.607Z,24.30
2019-02-19T06:43:03.109Z,29.15
2019-02-19T06:45:34.107Z,24.23
2019-02-19T06:48:05.343Z,25.80
2019-02-19T06:50:36.987Z,26.12
2019-02-19T06:53:07.960Z,24.82
2019-02-19T06:55:39.183Z,23.62
2019-02-19T06:58:10.194Z,22.70
2019-02-19T07:00:41.970Z,25.75
2019-02-19T07:03:33.126Z,27.93
2019-02-19T07:06:04.205Z,30.43
2019-02-19T07:08:35.765Z,23.92
2019-02-19T07:11:07.259Z,23.87
2019-02-19T07:13:38.188Z,22.75
2019-02-19T07:16:09.739Z,22.60
2019-02-19T07:18:41.614Z,22.17
2019-02-19T07:21:15.563Z,17.20
2019-02-19T07:23:47.253Z,22.90
2019-02-19T07:26:19.107Z,22.20
2019-02-19T07:28:50.358Z,22.05
2019-02-19T07:31:21.927Z,24.80
2019-02-19T07:33:53.100Z,23.45
2019-02-19T07:36:24.338Z,25.62
2019-02-19T07:38:56.197Z,19.57
2019-02-19T07:41:27.743Z,19.55
2019-02-19T07:43:59.287Z,23.73
2019-02-19T07:46:30.831Z,19.00
2019-02-19T07:49:02.652Z,20.57
2019-02-19T07:51:33.940Z,26.35
2019-02-19T07:54:05.308Z,24.57
2019-02-19T07:56:36.626Z,24.85
2019-02-19T07:59:08.476Z,26.73
2019-02-19T08:01:40.064Z,28.27
2019-02-19T08:04:11.309Z,23.12
2019-02-19T08:06:42.552Z,20.70
2019-02-19T08:09:14.329Z,20.37
2019-02-19T08:11:45.546Z,24.52
2019-02-19T08:14:17.035Z,20.57
2019-02-19T08:16:48.617Z,28.77
2019-02-19T08:19:19.607Z,20.62
2019-02-19T08:21:50.903Z,23.30
2019-02-19T08:24:22.126Z,19.05
2019-02-19T08:26:53.634Z,24.87
2019-02-19T08:29:24.965Z,22.05
2019-02-19T08:31:56.562Z,22.75
2019-02-19T08:34:37.367Z,17.10
2019-02-19T08:37:09.502Z,15.88
2019-02-19T08:39:40.780Z,11.33
2019-02-19T08:42:11.990Z,15.08
2019-02-19T08:44:42.986Z,13.70
2019-02-19T08:47:14.548Z,10.43
2019-02-19T08:49:45.512Z,12.28
2019-02-19T08:52:18.701Z,9.97
2019-02-19T08:54:50.195Z,11.40
2019-02-19T08:57:21.803Z,13.72
2019-02-19T08:59:53.453Z,10.85
2019-02-19T09:02:24.781Z,15.48
2019-02-19T09:04:56.123Z,11.10
2019-02-19T09:07:27.779Z,16.02
2019-02-19T09:09:59.627Z,15.30
2019-02-19T09:12:31.316Z,15.88
2019-02-19T09:15:02.328Z,12.87
2019-02-19T09:17:32.997Z,20.30
2019-02-19T09:20:04.673Z,10.43
2019-02-19T09:22:36.018Z,17.82
2019-02-19T09:25:07.592Z,14.40
2019-02-19T09:27:39.648Z,16.07
2019-02-19T09:30:12.821Z,19.73
2019-02-19T09:32:44.089Z,14.40
2019-02-19T09:35:15.395Z,16.37
2019-02-19T09:37:46.952Z,14.60
2019-02-19T09:40:18.244Z,16.30
2019-02-19T09:42:49.522Z,16.77
2019-02-19T09:45:21.201Z,15.97
2019-02-19T09:48:01.009Z,13.63
2019-02-19T09:50:26.890Z,16.27
2019-02-19T09:53:00.328Z,19.47
2019-02-19T09:55:31.350Z,18.10
2019-02-19T09:58:03.060Z,17.13
2019-02-19T10:00:34.369Z,13.43
2019-02-19T10:03:05.839Z,19.27
2019-02-19T10:05:37.224Z,17.37
2019-02-19T10:08:08.837Z,14.80
2019-02-19T10:10:39.891Z,15.97
2019-02-19T10:13:11.137Z,12.47
2019-02-19T10:15:42.763Z,19.13
2019-02-19T10:18:14.347Z,21.53
2019-02-19T10:20:46.500Z,17.70
2019-02-19T10:23:17.739Z,18.43
2019-02-19T10:25:49.874Z,16.73
2019-02-19T10:28:20.572Z,17.07
2019-02-19T10:30:52.182Z,15.27
2019-02-19T10:33:23.749Z,15.67
2019-02-19T10:35:55.036Z,15.90
2019-02-19T10:38:26.871Z,18.53
2019-02-19T10:40:58.122Z,12.93
2019-02-19T10:43:29.808Z,16.70
2019-02-19T10:46:01.373Z,19.90
2019-02-19T10:48:32.377Z,18.83
2019-02-19T10:51:03.953Z,16.80
2019-02-19T10:53:35.590Z,16.97
2019-02-19T10:56:07.188Z,16.83
2019-02-19T10:58:38.255Z,16.60
2019-02-19T11:01:09.520Z,16.77
2019-02-19T11:03:41.578Z,19.93
2019-02-19T11:06:13.246Z,20.70
2019-02-19T11:08:44.620Z,24.70
2019-02-19T11:11:16.101Z,20.80
2019-02-19T11:13:47.727Z,16.73
2019-02-19T11:16:19.267Z,19.23
2019-02-19T11:18:53.232Z,20.57
2019-02-19T11:21:24.965Z,17.87
2019-02-19T11:23:56.489Z,23.43
2019-02-19T11:26:28.205Z,23.13
2019-02-19T11:28:59.794Z,19.50
2019-02-19T11:31:31.565Z,20.80
2019-02-19T11:34:03.101Z,21.67
2019-02-19T11:36:34.396Z,19.93
2019-02-19T11:39:06.226Z,23.67
2019-02-19T11:41:37.612Z,20.40
2019-02-19T11:44:09.651Z,18.67
2019-02-19T11:46:41.692Z,19.97
2019-02-19T11:49:13.621Z,19.37
2019-02-19T11:51:45.669Z,25.20
2019-02-19T11:54:17.006Z,23.80
2019-02-19T11:56:48.315Z,18.50
2019-02-19T11:59:19.902Z,24.07
2019-02-19T12:01:51.089Z,20.80
2019-02-19T12:04:22.500Z,23.73
2019-02-19T12:06:54.088Z,24.30
2019-02-19T12:09:26.308Z,17.50
2019-02-19T12:11:57.560Z,21.10
2019-02-19T12:14:28.984Z,20.07
2019-02-19T12:17:00.005Z,19.60
2019-02-19T12:19:31.335Z,21.20
2019-02-19T12:22:02.934Z,23.80
2019-02-19T12:24:35.156Z,32.53
2019-02-19T12:27:08.882Z,22.80
2019-02-19T12:29:40.041Z,20.30
2019-02-19T12:32:11.830Z,35.40
2019-02-19T12:34:43.522Z,23.53
2019-02-19T12:37:15.126Z,21.13
2019-02-19T12:39:46.978Z,18.83
2019-02-19T12:42:18.580Z,23.50
2019-02-19T12:44:50.129Z,23.17
2019-02-19T12:47:21.470Z,22.60
2019-02-19T12:49:53.191Z,22.40
2019-02-19T12:52:24.529Z,23.00
2019-02-19T12:54:56.181Z,24.77
2019-02-19T12:57:27.208Z,22.20
2019-02-19T12:59:58.788Z,20.67
2019-02-19T13:02:30.792Z,18.50
2019-02-19T13:05:02.358Z,25.30
2019-02-19T13:07:33.676Z,20.40
2019-02-19T13:10:05.745Z,26.70
2019-02-19T13:12:36.830Z,26.93
2019-02-19T13:15:11.693Z,21.27
2019-02-19T13:17:43.247Z,26.07
2019-02-19T13:20:15.710Z,20.53
2019-02-19T13:22:48.519Z,17.67
2019-02-19T13:25:20.439Z,19.90
2019-02-19T13:27:52.020Z,21.90
2019-02-19T13:30:23.422Z,25.40
2019-02-19T13:32:55.276Z,18.50
2019-02-19T13:35:26.862Z,27.17
2019-02-19T13:37:58.647Z,19.53
2019-02-19T13:40:30.233Z,20.30
2019-02-19T13:43:01.770Z,21.00
2019-02-19T13:45:33.187Z,18.80
2019-02-19T13:48:06.155Z,20.97
2019-02-19T13:50:37.629Z,22.37
2019-02-19T13:53:33.694Z,22.90
2019-02-19T13:56:06.038Z,20.53
2019-02-19T13:58:37.149Z,21.37
2019-02-19T14:01:07.855Z,18.77
2019-02-19T14:03:39.623Z,17.57
2019-02-19T14:06:10.696Z,27.47
2019-02-19T14:08:42.416Z,22.30
2019-02-19T14:11:14.022Z,16.80
2019-02-19T14:13:51.785Z,18.40
2019-02-19T14:16:30.084Z,19.90
2019-02-19T14:19:09.566Z,18.13
2019-02-19T14:21:58.559Z,20.10
2019-02-19T14:24:36.569Z,30.60
2019-02-19T14:27:26.890Z,21.57
2019-02-19T14:30:26.410Z,33.50
2019-02-19T14:33:14.778Z,44.90
2019-02-19T14:36:11.066Z,20.23
2019-02-19T14:38:58.841Z,19.23
2019-02-19T14:41:42.800Z,19.40
2019-02-19T14:44:32.647Z,25.63
2019-02-19T14:47:22.028Z,21.60
2019-02-19T14:50:05.951Z,24.00
2019-02-19T14:52:56.139Z,28.67
2019-02-19T14:55:40.745Z,23.00
2019-02-19T14:58:34.014Z,37.00
2019-02-19T15:01:23.644Z,30.93
2019-02-19T15:04:22.662Z,15.80
2019-02-19T15:07:09.452Z,19.33
2019-02-19T15:09:58.924Z,26.27
2019-02-19T15:12:40.754Z,17.47
2019-02-19T15:15:22.096Z,20.73
2019-02-19T15:18:18.899Z,28.80
2019-02-19T15:21:16.905Z,26.13
2019-02-19T15:24:15.956Z,22.57
2019-02-19T15:27:05.917Z,22.00
2019-02-19T15:29:57.988Z,19.10
2019-02-19T15:32:37.344Z,21.60
2019-02-19T15:35:37.078Z,29.33
2019-02-19T15:38:33.121Z,26.10
2019-02-19T15:41:29.068Z,24.93
2019-02-19T15:44:17.065Z,23.67
2019-02-19T15:47:13.029Z,23.77
2019-02-19T15:50:01.333Z,26.50
2019-02-19T15:52:50.329Z,19.00
2019-02-19T15:55:46.527Z,25.03
2019-02-19T15:58:46.651Z,23.50
2019-02-19T16:01:41.242Z,25.07
2019-02-19T16:04:27.070Z,27.63
2019-02-19T16:07:20.443Z,27.90
2019-02-19T16:09:56.703Z,29.03
2019-02-19T16:12:52.596Z,28.23
2019-02-19T16:15:45.958Z,26.17
2019-02-19T16:18:31.095Z,28.97
2019-02-19T16:21:08.266Z,32.83
2019-02-19T16:23:57.860Z,35.93
2019-02-19T16:27:06.617Z,28.60
2019-02-19T16:29:56.964Z,26.03
2019-02-19T16:32:43.777Z,28.00
2019-02-19T16:35:39.980Z,30.03
2019-02-19T16:38:29.435Z,29.67
2019-02-19T16:41:08.004Z,28.37
2019-02-19T16:44:04.333Z,46.23
2019-02-19T16:46:57.040Z,48.33
2019-02-19T16:49:46.069Z,44.60
2019-02-19T16:52:39.028Z,34.80
2019-02-19T16:55:28.982Z,32.03
2019-02-19T16:58:18.684Z,35.27
2019-02-19T17:01:17.708Z,28.93
2019-02-19T17:03:56.157Z,29.20
2019-02-19T17:06:52.708Z,28.63
2019-02-19T17:09:49.110Z,25.48
2019-02-19T17:12:41.763Z,31.20
2019-02-19T17:15:33.211Z,29.30
2019-02-19T17:18:27.081Z,25.97
2019-02-19T17:21:07.819Z,30.10
2019-02-19T17:23:44.586Z,31.27
2019-02-19T17:26:27.028Z,30.40
2019-02-19T17:29:13.839Z,29.33
2019-02-19T17:32:02.134Z,32.10
2019-02-19T17:34:43.226Z,37.93
2019-02-19T17:37:29.268Z,33.50
2019-02-19T17:40:08.601Z,35.83
2019-02-19T17:42:55.106Z,40.13
2019-02-19T17:45:38.132Z,32.67
2019-02-19T17:48:26.539Z,36.17
2019-02-19T17:51:19.275Z,31.50
2019-02-19T17:54:09.330Z,34.83
2019-02-19T17:56:51.419Z,33.25
2019-02-19T17:59:32.270Z,34.53
2019-02-19T18:02:10.789Z,32.87
2019-02-19T18:05:07.123Z,37.13
2019-02-19T18:08:12.496Z,34.70
2019-02-19T18:11:00.582Z,37.13
2019-02-19T18:13:45.285Z,34.53
2019-02-19T18:16:47.994Z,38.63
2019-02-19T18:19:19.646Z,48.68
2019-02-19T18:21:51.260Z,48.60
2019-02-19T18:24:21.939Z,37.85
2019-02-19T18:26:52.970Z,42.78
2019-02-19T18:29:24.606Z,38.78
2019-02-19T18:31:55.596Z,36.73
2019-02-19T18:34:27.554Z,37.70
2019-02-19T18:36:59.306Z,36.17
2019-02-19T18:39:30.899Z,34.67
2019-02-19T18:42:02.151Z,46.73
2019-02-19T18:44:33.846Z,36.30
2019-02-19T18:47:04.857Z,39.90
2019-02-19T18:49:37.036Z,63.15
2019-02-19T18:52:08.493Z,45.05
2019-02-19T18:54:40.133Z,45.10
2019-02-19T18:57:11.419Z,36.33
2019-02-19T18:59:43.182Z,40.43
2019-02-19T19:02:15.245Z,43.45
2019-02-19T19:04:46.866Z,42.38
2019-02-19T19:07:19.295Z,40.12
2019-02-19T19:09:51.040Z,39.45
2019-02-19T19:12:23.668Z,38.88
2019-02-19T19:14:55.771Z,37.55
2019-02-19T19:17:26.822Z,42.80
2019-02-19T19:19:58.352Z,39.15
2019-02-19T19:22:29.515Z,39.20
2019-02-19T19:25:01.413Z,40.40
2019-02-19T19:27:33.416Z,38.13
2019-02-19T19:30:05.266Z,37.90
2019-02-19T19:32:37.052Z,37.75
2019-02-19T19:35:09.404Z,42.38
2019-02-19T19:37:41.311Z,35.00
2019-02-19T19:40:13.012Z,36.98
2019-02-19T19:42:44.919Z,40.78
2019-02-19T19:45:16.090Z,36.20
2019-02-19T19:47:47.837Z,40.98
2019-02-19T19:50:19.473Z,44.20
2019-02-19T19:52:50.331Z,44.90
2019-02-19T19:55:22.249Z,38.38
2019-02-19T19:57:53.995Z,39.30
2019-02-19T20:00:26.358Z,38.65
2019-02-19T20:02:58.125Z,35.17
2019-02-19T20:05:29.764Z,42.75
2019-02-19T20:08:01.693Z,38.95
2019-02-19T20:10:33.757Z,38.20
2019-02-19T20:13:05.098Z,38.42
2019-02-19T20:15:36.929Z,39.30
2019-02-19T20:18:08.473Z,37.00
2019-02-19T20:20:39.411Z,38.35
2019-02-19T20:23:11.336Z,36.60
2019-02-19T20:25:43.035Z,39.13
2019-02-19T20:28:14.065Z,37.65
2019-02-19T20:30:45.505Z,45.35
2019-02-19T20:33:17.201Z,36.83
2019-02-19T20:35:49.048Z,43.25
2019-02-19T20:38:20.203Z,39.35
2019-02-19T20:40:51.914Z,35.23
2019-02-19T20:43:24.034Z,33.92
2019-02-19T20:45:55.487Z,32.13
2019-02-19T20:48:27.302Z,39.20
2019-02-19T20:51:00.653Z,35.38
2019-02-19T20:53:32.748Z,39.98
2019-02-19T20:56:04.809Z,35.35
2019-02-19T20:58:35.878Z,30.65
2019-02-19T21:01:07.238Z,33.08
2019-02-19T21:03:39.375Z,35.30
2019-02-19T21:06:10.957Z,33.92
2019-02-19T21:08:43.162Z,33.30
2019-02-19T21:11:15.050Z,32.63
2019-02-19T21:13:46.807Z,31.45
2019-02-19T21:16:18.780Z,33.02
2019-02-19T21:18:50.945Z,37.33
2019-02-19T21:21:22.676Z,48.23
2019-02-19T21:23:53.717Z,36.90
2019-02-19T21:26:25.452Z,40.28
2019-02-19T21:28:57.427Z,40.03
2019-02-19T21:31:29.522Z,38.15
2019-02-19T21:34:01.582Z,40.83
2019-02-19T21:36:33.419Z,44.08
2019-02-19T21:39:05.575Z,44.05
2019-02-19T21:41:37.530Z,37.20
2019-02-19T21:44:09.635Z,44.03
2019-02-19T21:46:41.696Z,36.45
2019-02-19T21:49:13.244Z,36.48
2019-02-19T21:51:53.702Z,40.40
2019-02-19T21:54:18.282Z,37.03
2019-02-19T21:56:50.205Z,35.17
2019-02-19T21:59:21.628Z,37.40
2019-02-19T22:01:53.647Z,37.08
2019-02-19T22:04:25.261Z,35.48
2019-02-19T22:06:56.966Z,42.62
2019-02-19T22:09:28.615Z,39.00
2019-02-19T22:11:59.594Z,36.48
2019-02-19T22:14:31.305Z,39.25
2019-02-19T22:17:02.365Z,80.20
2019-02-19T22:19:33.648Z,60.78
2019-02-19T22:22:16.443Z,42.83
2019-02-19T22:24:47.570Z,44.13
2019-02-19T22:27:19.633Z,42.43
2019-02-19T22:29:51.480Z,49.08
2019-02-19T22:32:23.136Z,43.17
2019-02-19T22:34:54.429Z,44.27
2019-02-19T22:37:26.506Z,44.45
2019-02-19T22:39:58.360Z,44.90
2019-02-19T22:42:29.713Z,45.60
2019-02-19T22:45:01.636Z,43.95
2019-02-19T22:47:32.947Z,47.13
2019-02-19T22:50:07.816Z,42.88
2019-02-19T22:52:45.180Z,45.10
2019-02-19T22:55:35.215Z,41.73
2019-02-19T22:58:07.129Z,41.50
2019-02-19T23:00:58.812Z,46.05
2019-02-19T23:03:39.484Z,40.83
2019-02-19T23:06:11.151Z,40.12
2019-02-19T23:08:42.396Z,38.90
2019-02-19T23:11:14.001Z,42.95
2019-02-19T23:13:45.237Z,39.42
2019-02-19T23:16:20.742Z,41.77
2019-02-19T23:18:56.165Z,40.58
2019-02-19T23:21:28.030Z,45.23
2019-02-19T23:23:59.792Z,39.80
2019-02-19T23:26:33.853Z,41.53
2019-02-19T23:29:06.022Z,37.13
2019-02-19T23:31:43.437Z,42.58
2019-02-19T23:34:16.044Z,37.83
2019-02-19T23:36:59.969Z,34.38
2019-02-19T23:39:31.583Z,40.17
2019-02-19T23:42:03.130Z,38.98
2019-02-19T23:44:34.770Z,37.73
2019-02-19T23:47:06.027Z,42.48
2019-02-19T23:49:37.574Z,53.80
2019-02-19T23:52:08.576Z,56.25
2019-02-19T23:54:39.839Z,43.58
2019-02-19T23:57:11.348Z,37.33
2019-02-19T23:59:42.981Z,41.00
